sensor_id;sensor_type;location;lat;lon;timestamp;P1;durP1;ratioP1;P2;durP2;ratioP2
20101;SDS011;10210;52.284;9.892;2022-11-15T00:00:53;17.30;;;8.47;;
20101;SDS011;10210;52.284;9.892;2022-11-15T00:03:21;16.10;;;8.70;;
20101;SDS011;10210;52.284;9.892;2022-11-15T00:05:49;18.57;;;9.23;;
20101;SDS011;10210;52.284;9.892;2022-11-15T00:08:16;19.33;;;9.27;;
20101;SDS011;10210;52.284;9.892;2022-11-15T00:10:42;19.67;;;9.10;;
20101;SDS011;10210;52.284;9.892;2022-11-15T00:13:11;16.33;;;8.70;;
20101;SDS011;10210;52.284;9.892;2022-11-15T00:15:38;17.63;;;8.90;;
20101;SDS011;10210;52.284;9.892;2022-11-15T00:18:06;17.53;;;9.03;;
20101;SDS011;10210;52.284;9.892;2022-11-15T00:20:40;17.03;;;8.50;;
20101;SDS011;10210;52.284;9.892;2022-11-15T00:23:06;17.70;;;8.97;;
20101;SDS011;10210;52.284;9.892;2022-11-15T00:25:32;17.33;;;9.13;;
20101;SDS011;10210;52.284;9.892;2022-11-15T00:27:58;16.73;;;8.53;;
20101;SDS011;10210;52.284;9.892;2022-11-15T00:30:25;19.30;;;9.67;;
20101;SDS011;10210;52.284;9.892;2022-11-15T00:32:52;16.37;;;8.50;;
20101;SDS011;10210;52.284;9.892;2022-11-15T00:35:18;16.57;;;8.00;;
20101;SDS011;10210;52.284;9.892;2022-11-15T00:37:44;17.73;;;8.03;;
20101;SDS011;10210;52.284;9.892;2022-11-15T00:40:12;14.10;;;6.87;;
20101;SDS011;10210;52.284;9.892;2022-11-15T00:42:38;16.63;;;8.40;;
20101;SDS011;10210;52.284;9.892;2022-11-15T00:45:05;17.17;;;8.37;;
20101;SDS011;10210;52.284;9.892;2022-11-15T00:47:31;17.10;;;8.53;;
20101;SDS011;10210;52.284;9.892;2022-11-15T00:49:57;16.57;;;8.23;;
20101;SDS011;10210;52.284;9.892;2022-11-15T00:52:23;15.10;;;8.23;;
20101;SDS011;10210;52.284;9.892;2022-11-15T00:54:49;15.33;;;8.20;;
20101;SDS011;10210;52.284;9.892;2022-11-15T00:57:15;16.03;;;8.20;;
20101;SDS011;10210;52.284;9.892;2022-11-15T00:59:40;16.17;;;7.90;;
20101;SDS011;10210;52.284;9.892;2022-11-15T01:02:06;18.43;;;8.10;;
20101;SDS011;10210;52.284;9.892;2022-11-15T01:04:32;14.87;;;8.20;;
20101;SDS011;10210;52.284;9.892;2022-11-15T01:06:57;16.67;;;8.87;;
20101;SDS011;10210;52.284;9.892;2022-11-15T01:09:23;19.40;;;9.30;;
20101;SDS011;10210;52.284;9.892;2022-11-15T01:11:49;18.97;;;9.23;;
20101;SDS011;10210;52.284;9.892;2022-11-15T01:14:14;16.57;;;8.93;;
20101;SDS011;10210;52.284;9.892;2022-11-15T01:16:40;17.37;;;9.27;;
20101;SDS011;10210;52.284;9.892;2022-11-15T01:19:07;18.30;;;8.70;;
20101;SDS011;10210;52.284;9.892;2022-11-15T01:21:33;17.37;;;9.03;;
20101;SDS011;10210;52.284;9.892;2022-11-15T01:23:58;17.50;;;8.17;;
20101;SDS011;10210;52.284;9.892;2022-11-15T01:26:24;17.23;;;8.53;;
20101;SDS011;10210;52.284;9.892;2022-11-15T01:28:50;17.93;;;9.20;;
20101;SDS011;10210;52.284;9.892;2022-11-15T01:31:17;17.43;;;8.50;;
20101;SDS011;10210;52.284;9.892;2022-11-15T01:33:45;18.17;;;8.80;;
20101;SDS011;10210;52.284;9.892;2022-11-15T01:36:13;16.43;;;8.30;;
20101;SDS011;10210;52.284;9.892;2022-11-15T01:38:42;17.13;;;8.53;;
20101;SDS011;10210;52.284;9.892;2022-11-15T01:41:19;16.50;;;8.50;;
20101;SDS011;10210;52.284;9.892;2022-11-15T01:43:52;15.97;;;8.00;;
20101;SDS011;10210;52.284;9.892;2022-11-15T01:48:55;16.60;;;8.60;;
20101;SDS011;10210;52.284;9.892;2022-11-15T01:51:25;16.73;;;8.40;;
20101;SDS011;10210;52.284;9.892;2022-11-15T01:53:57;16.53;;;8.33;;
20101;SDS011;10210;52.284;9.892;2022-11-15T01:56:36;19.53;;;9.00;;
20101;SDS011;10210;52.284;9.892;2022-11-15T01:59:10;16.17;;;8.03;;
20101;SDS011;10210;52.284;9.892;2022-11-15T02:01:36;15.47;;;7.10;;
20101;SDS011;10210;52.284;9.892;2022-11-15T02:04:13;15.77;;;8.27;;
20101;SDS011;10210;52.284;9.892;2022-11-15T02:06:46;15.80;;;7.40;;
20101;SDS011;10210;52.284;9.892;2022-11-15T02:09:13;15.03;;;7.13;;
20101;SDS011;10210;52.284;9.892;2022-11-15T02:11:40;14.53;;;7.60;;
20101;SDS011;10210;52.284;9.892;2022-11-15T02:14:06;15.37;;;7.20;;
20101;SDS011;10210;52.284;9.892;2022-11-15T02:28:04;17.67;;;9.00;;
20101;SDS011;10210;52.284;9.892;2022-11-15T02:33:53;18.90;;;9.53;;
20101;SDS011;10210;52.284;9.892;2022-11-15T02:36:45;16.10;;;8.37;;
20101;SDS011;10210;52.284;9.892;2022-11-15T02:39:35;18.50;;;9.20;;
20101;SDS011;10210;52.284;9.892;2022-11-15T02:42:17;18.17;;;8.23;;
20101;SDS011;10210;52.284;9.892;2022-11-15T02:45:30;17.77;;;8.23;;
20101;SDS011;10210;52.284;9.892;2022-11-15T02:48:02;15.77;;;8.30;;
20101;SDS011;10210;52.284;9.892;2022-11-15T02:50:31;17.23;;;9.03;;
20101;SDS011;10210;52.284;9.892;2022-11-15T02:52:59;16.70;;;8.33;;
20101;SDS011;10210;52.284;9.892;2022-11-15T02:55:35;18.03;;;8.50;;
20101;SDS011;10210;52.284;9.892;2022-11-15T03:10:17;16.13;;;7.80;;
20101;SDS011;10210;52.284;9.892;2022-11-15T03:12:57;16.63;;;7.90;;
20101;SDS011;10210;52.284;9.892;2022-11-15T03:15:57;17.90;;;8.50;;
20101;SDS011;10210;52.284;9.892;2022-11-15T03:18:45;14.67;;;7.30;;
20101;SDS011;10210;52.284;9.892;2022-11-15T03:21:20;15.53;;;7.90;;
20101;SDS011;10210;52.284;9.892;2022-11-15T03:23:49;17.43;;;7.90;;
20101;SDS011;10210;52.284;9.892;2022-11-15T03:26:17;16.57;;;7.40;;
20101;SDS011;10210;52.284;9.892;2022-11-15T03:28:59;14.90;;;7.43;;
20101;SDS011;10210;52.284;9.892;2022-11-15T03:31:34;15.27;;;7.50;;
20101;SDS011;10210;52.284;9.892;2022-11-15T03:34:32;15.60;;;7.37;;
20101;SDS011;10210;52.284;9.892;2022-11-15T03:37:06;13.87;;;7.03;;
20101;SDS011;10210;52.284;9.892;2022-11-15T03:39:34;16.37;;;7.30;;
20101;SDS011;10210;52.284;9.892;2022-11-15T03:42:18;19.27;;;7.57;;
20101;SDS011;10210;52.284;9.892;2022-11-15T03:47:59;15.40;;;7.00;;
20101;SDS011;10210;52.284;9.892;2022-11-15T03:50:34;16.23;;;7.07;;
20101;SDS011;10210;52.284;9.892;2022-11-15T03:53:01;15.00;;;7.20;;
20101;SDS011;10210;52.284;9.892;2022-11-15T03:55:28;20.60;;;6.87;;
20101;SDS011;10210;52.284;9.892;2022-11-15T03:57:57;15.77;;;6.67;;
20101;SDS011;10210;52.284;9.892;2022-11-15T04:00:25;14.00;;;6.77;;
20101;SDS011;10210;52.284;9.892;2022-11-15T04:02:52;16.83;;;6.37;;
20101;SDS011;10210;52.284;9.892;2022-11-15T04:05:18;15.37;;;6.40;;
20101;SDS011;10210;52.284;9.892;2022-11-15T04:07:44;16.03;;;6.50;;
20101;SDS011;10210;52.284;9.892;2022-11-15T04:10:10;14.17;;;5.83;;
20101;SDS011;10210;52.284;9.892;2022-11-15T04:12:38;14.37;;;6.10;;
20101;SDS011;10210;52.284;9.892;2022-11-15T04:15:09;15.27;;;6.40;;
20101;SDS011;10210;52.284;9.892;2022-11-15T04:17:41;16.60;;;7.23;;
20101;SDS011;10210;52.284;9.892;2022-11-15T04:20:12;13.47;;;6.20;;
20101;SDS011;10210;52.284;9.892;2022-11-15T04:23:23;14.80;;;6.30;;
20101;SDS011;10210;52.284;9.892;2022-11-15T04:26:17;15.93;;;6.57;;
20101;SDS011;10210;52.284;9.892;2022-11-15T04:28:45;15.00;;;6.30;;
20101;SDS011;10210;52.284;9.892;2022-11-15T04:31:30;14.00;;;6.27;;
20101;SDS011;10210;52.284;9.892;2022-11-15T04:33:55;14.37;;;5.77;;
20101;SDS011;10210;52.284;9.892;2022-11-15T04:36:22;14.20;;;6.17;;
20101;SDS011;10210;52.284;9.892;2022-11-15T04:39:07;15.33;;;6.43;;
20101;SDS011;10210;52.284;9.892;2022-11-15T04:41:33;15.33;;;6.47;;
20101;SDS011;10210;52.284;9.892;2022-11-15T04:43:58;13.10;;;5.73;;
20101;SDS011;10210;52.284;9.892;2022-11-15T04:46:24;15.57;;;5.83;;
20101;SDS011;10210;52.284;9.892;2022-11-15T04:48:51;13.43;;;6.10;;
20101;SDS011;10210;52.284;9.892;2022-11-15T04:51:18;15.47;;;5.80;;
20101;SDS011;10210;52.284;9.892;2022-11-15T04:53:44;13.30;;;5.40;;
20101;SDS011;10210;52.284;9.892;2022-11-15T04:56:10;15.57;;;5.70;;
20101;SDS011;10210;52.284;9.892;2022-11-15T04:58:36;13.10;;;5.90;;
20101;SDS011;10210;52.284;9.892;2022-11-15T05:01:09;15.33;;;6.00;;
20101;SDS011;10210;52.284;9.892;2022-11-15T05:03:42;14.13;;;6.00;;
20101;SDS011;10210;52.284;9.892;2022-11-15T05:06:27;13.50;;;5.60;;
20101;SDS011;10210;52.284;9.892;2022-11-15T05:08:54;15.30;;;5.60;;
20101;SDS011;10210;52.284;9.892;2022-11-15T05:11:20;14.10;;;5.67;;
20101;SDS011;10210;52.284;9.892;2022-11-15T05:13:47;15.40;;;5.63;;
20101;SDS011;10210;52.284;9.892;2022-11-15T05:16:13;14.20;;;5.90;;
20101;SDS011;10210;52.284;9.892;2022-11-15T05:18:39;13.10;;;5.53;;
20101;SDS011;10210;52.284;9.892;2022-11-15T05:21:06;13.57;;;5.30;;
20101;SDS011;10210;52.284;9.892;2022-11-15T05:23:36;13.47;;;5.47;;
20101;SDS011;10210;52.284;9.892;2022-11-15T05:26:03;15.07;;;6.27;;
20101;SDS011;10210;52.284;9.892;2022-11-15T05:28:31;13.97;;;5.77;;
20101;SDS011;10210;52.284;9.892;2022-11-15T05:31:05;13.43;;;5.80;;
20101;SDS011;10210;52.284;9.892;2022-11-15T05:33:35;15.00;;;5.87;;
20101;SDS011;10210;52.284;9.892;2022-11-15T05:36:05;13.83;;;5.97;;
20101;SDS011;10210;52.284;9.892;2022-11-15T05:38:57;18.00;;;6.17;;
20101;SDS011;10210;52.284;9.892;2022-11-15T05:41:42;12.70;;;5.53;;
20101;SDS011;10210;52.284;9.892;2022-11-15T05:44:13;13.63;;;5.87;;
20101;SDS011;10210;52.284;9.892;2022-11-15T05:46:44;13.70;;;5.83;;
20101;SDS011;10210;52.284;9.892;2022-11-15T05:49:12;15.63;;;6.17;;
20101;SDS011;10210;52.284;9.892;2022-11-15T05:51:43;13.30;;;5.87;;
20101;SDS011;10210;52.284;9.892;2022-11-15T05:54:12;13.27;;;6.00;;
20101;SDS011;10210;52.284;9.892;2022-11-15T05:56:38;13.17;;;6.07;;
20101;SDS011;10210;52.284;9.892;2022-11-15T05:59:04;12.07;;;5.37;;
20101;SDS011;10210;52.284;9.892;2022-11-15T06:01:33;13.27;;;5.67;;
20101;SDS011;10210;52.284;9.892;2022-11-15T06:03:58;13.03;;;5.90;;
20101;SDS011;10210;52.284;9.892;2022-11-15T06:06:24;12.73;;;5.40;;
20101;SDS011;10210;52.284;9.892;2022-11-15T06:08:52;13.37;;;5.00;;
20101;SDS011;10210;52.284;9.892;2022-11-15T06:11:17;13.07;;;4.93;;
20101;SDS011;10210;52.284;9.892;2022-11-15T06:13:43;12.50;;;5.37;;
20101;SDS011;10210;52.284;9.892;2022-11-15T06:16:08;14.20;;;5.60;;
20101;SDS011;10210;52.284;9.892;2022-11-15T06:18:34;15.23;;;5.40;;
20101;SDS011;10210;52.284;9.892;2022-11-15T06:21:01;12.33;;;5.13;;
20101;SDS011;10210;52.284;9.892;2022-11-15T06:23:27;14.13;;;5.43;;
20101;SDS011;10210;52.284;9.892;2022-11-15T06:25:57;13.00;;;5.80;;
20101;SDS011;10210;52.284;9.892;2022-11-15T06:28:24;13.53;;;5.43;;
20101;SDS011;10210;52.284;9.892;2022-11-15T06:30:54;15.30;;;6.70;;
20101;SDS011;10210;52.284;9.892;2022-11-15T06:33:19;12.77;;;5.60;;
20101;SDS011;10210;52.284;9.892;2022-11-15T06:35:45;13.03;;;5.43;;
20101;SDS011;10210;52.284;9.892;2022-11-15T06:38:11;13.73;;;5.83;;
20101;SDS011;10210;52.284;9.892;2022-11-15T06:40:39;13.83;;;5.13;;
20101;SDS011;10210;52.284;9.892;2022-11-15T06:43:05;12.70;;;4.90;;
20101;SDS011;10210;52.284;9.892;2022-11-15T06:45:32;15.33;;;6.73;;
20101;SDS011;10210;52.284;9.892;2022-11-15T06:47:58;13.60;;;5.67;;
20101;SDS011;10210;52.284;9.892;2022-11-15T06:50:24;14.03;;;5.97;;
20101;SDS011;10210;52.284;9.892;2022-11-15T06:52:50;14.17;;;5.83;;
20101;SDS011;10210;52.284;9.892;2022-11-15T06:55:16;15.00;;;6.00;;
20101;SDS011;10210;52.284;9.892;2022-11-15T06:57:48;14.70;;;5.97;;
20101;SDS011;10210;52.284;9.892;2022-11-15T07:00:16;13.70;;;5.77;;
20101;SDS011;10210;52.284;9.892;2022-11-15T07:02:44;14.17;;;6.23;;
20101;SDS011;10210;52.284;9.892;2022-11-15T07:05:10;11.53;;;4.97;;
20101;SDS011;10210;52.284;9.892;2022-11-15T07:07:38;12.90;;;5.30;;
20101;SDS011;10210;52.284;9.892;2022-11-15T07:10:04;12.63;;;5.33;;
20101;SDS011;10210;52.284;9.892;2022-11-15T07:12:31;13.10;;;5.30;;
20101;SDS011;10210;52.284;9.892;2022-11-15T07:14:56;13.17;;;6.10;;
20101;SDS011;10210;52.284;9.892;2022-11-15T07:17:22;13.17;;;5.10;;
20101;SDS011;10210;52.284;9.892;2022-11-15T07:19:48;14.27;;;5.30;;
20101;SDS011;10210;52.284;9.892;2022-11-15T07:22:13;12.23;;;5.20;;
20101;SDS011;10210;52.284;9.892;2022-11-15T07:24:39;15.23;;;5.90;;
20101;SDS011;10210;52.284;9.892;2022-11-15T07:27:05;14.50;;;5.67;;
20101;SDS011;10210;52.284;9.892;2022-11-15T07:29:30;13.57;;;5.00;;
20101;SDS011;10210;52.284;9.892;2022-11-15T07:31:56;13.37;;;5.30;;
20101;SDS011;10210;52.284;9.892;2022-11-15T07:34:22;13.80;;;5.47;;
20101;SDS011;10210;52.284;9.892;2022-11-15T07:36:48;13.07;;;5.20;;
20101;SDS011;10210;52.284;9.892;2022-11-15T07:39:14;13.77;;;4.90;;
20101;SDS011;10210;52.284;9.892;2022-11-15T07:41:40;13.07;;;4.80;;
20101;SDS011;10210;52.284;9.892;2022-11-15T07:44:05;13.20;;;5.40;;
20101;SDS011;10210;52.284;9.892;2022-11-15T07:46:31;12.97;;;5.10;;
20101;SDS011;10210;52.284;9.892;2022-11-15T07:48:57;12.07;;;4.90;;
20101;SDS011;10210;52.284;9.892;2022-11-15T07:51:23;12.50;;;5.33;;
20101;SDS011;10210;52.284;9.892;2022-11-15T07:53:48;12.80;;;5.30;;
20101;SDS011;10210;52.284;9.892;2022-11-15T07:56:14;12.13;;;5.03;;
20101;SDS011;10210;52.284;9.892;2022-11-15T07:58:40;12.93;;;5.03;;
20101;SDS011;10210;52.284;9.892;2022-11-15T08:01:06;12.87;;;4.93;;
20101;SDS011;10210;52.284;9.892;2022-11-15T08:03:34;14.40;;;5.10;;
20101;SDS011;10210;52.284;9.892;2022-11-15T08:06:00;12.70;;;5.23;;
20101;SDS011;10210;52.284;9.892;2022-11-15T08:08:27;13.97;;;5.63;;
20101;SDS011;10210;52.284;9.892;2022-11-15T08:10:52;13.73;;;5.40;;
20101;SDS011;10210;52.284;9.892;2022-11-15T08:13:18;14.93;;;5.50;;
20101;SDS011;10210;52.284;9.892;2022-11-15T08:15:44;13.43;;;4.97;;
20101;SDS011;10210;52.284;9.892;2022-11-15T08:18:11;11.90;;;5.00;;
20101;SDS011;10210;52.284;9.892;2022-11-15T08:20:40;12.30;;;4.87;;
20101;SDS011;10210;52.284;9.892;2022-11-15T08:23:06;11.93;;;4.70;;
20101;SDS011;10210;52.284;9.892;2022-11-15T08:25:33;15.27;;;5.37;;
20101;SDS011;10210;52.284;9.892;2022-11-15T08:28:02;11.83;;;5.13;;
20101;SDS011;10210;52.284;9.892;2022-11-15T08:30:30;12.83;;;5.50;;
20101;SDS011;10210;52.284;9.892;2022-11-15T08:33:09;14.03;;;5.70;;
20101;SDS011;10210;52.284;9.892;2022-11-15T08:35:37;12.47;;;5.67;;
20101;SDS011;10210;52.284;9.892;2022-11-15T08:38:04;14.60;;;6.30;;
20101;SDS011;10210;52.284;9.892;2022-11-15T08:40:30;13.43;;;5.17;;
20101;SDS011;10210;52.284;9.892;2022-11-15T08:42:56;14.17;;;5.57;;
20101;SDS011;10210;52.284;9.892;2022-11-15T08:45:23;13.20;;;5.07;;
20101;SDS011;10210;52.284;9.892;2022-11-15T08:47:49;13.80;;;5.97;;
20101;SDS011;10210;52.284;9.892;2022-11-15T08:50:15;15.37;;;5.53;;
20101;SDS011;10210;52.284;9.892;2022-11-15T08:52:40;15.43;;;5.40;;
20101;SDS011;10210;52.284;9.892;2022-11-15T08:55:06;13.17;;;5.33;;
20101;SDS011;10210;52.284;9.892;2022-11-15T08:57:33;13.13;;;5.33;;
20101;SDS011;10210;52.284;9.892;2022-11-15T08:59:58;12.33;;;4.60;;
20101;SDS011;10210;52.284;9.892;2022-11-15T09:02:24;13.27;;;5.23;;
20101;SDS011;10210;52.284;9.892;2022-11-15T09:04:50;14.10;;;4.53;;
20101;SDS011;10210;52.284;9.892;2022-11-15T09:07:15;10.77;;;4.60;;
20101;SDS011;10210;52.284;9.892;2022-11-15T09:09:41;10.93;;;4.37;;
20101;SDS011;10210;52.284;9.892;2022-11-15T09:12:07;12.10;;;4.70;;
20101;SDS011;10210;52.284;9.892;2022-11-15T09:14:33;10.37;;;4.03;;
20101;SDS011;10210;52.284;9.892;2022-11-15T09:16:59;12.23;;;4.13;;
20101;SDS011;10210;52.284;9.892;2022-11-15T09:19:26;11.70;;;3.97;;
20101;SDS011;10210;52.284;9.892;2022-11-15T09:21:51;10.47;;;3.83;;
20101;SDS011;10210;52.284;9.892;2022-11-15T09:24:17;11.47;;;4.30;;
20101;SDS011;10210;52.284;9.892;2022-11-15T09:26:43;10.23;;;3.90;;
20101;SDS011;10210;52.284;9.892;2022-11-15T09:29:09;11.27;;;3.90;;
20101;SDS011;10210;52.284;9.892;2022-11-15T09:31:35;9.13;;;3.50;;
20101;SDS011;10210;52.284;9.892;2022-11-15T09:34:00;9.90;;;3.77;;
20101;SDS011;10210;52.284;9.892;2022-11-15T09:36:26;9.30;;;3.50;;
20101;SDS011;10210;52.284;9.892;2022-11-15T09:38:52;10.37;;;3.90;;
20101;SDS011;10210;52.284;9.892;2022-11-15T09:50:00;13.20;;;3.80;;
20101;SDS011;10210;52.284;9.892;2022-11-15T09:52:34;13.33;;;3.93;;
20101;SDS011;10210;52.284;9.892;2022-11-15T09:55:07;8.47;;;3.37;;
20101;SDS011;10210;52.284;9.892;2022-11-15T09:57:39;11.13;;;3.93;;
20101;SDS011;10210;52.284;9.892;2022-11-15T10:00:27;10.10;;;3.73;;
20101;SDS011;10210;52.284;9.892;2022-11-15T10:05:43;9.97;;;3.80;;
20101;SDS011;10210;52.284;9.892;2022-11-15T10:11:31;9.53;;;3.80;;
20101;SDS011;10210;52.284;9.892;2022-11-15T10:14:20;13.83;;;3.87;;
20101;SDS011;10210;52.284;9.892;2022-11-15T10:20:13;11.03;;;3.77;;
20101;SDS011;10210;52.284;9.892;2022-11-15T10:22:48;8.53;;;3.37;;
20101;SDS011;10210;52.284;9.892;2022-11-15T10:25:31;10.57;;;3.90;;
20101;SDS011;10210;52.284;9.892;2022-11-15T10:28:06;9.90;;;3.80;;
20101;SDS011;10210;52.284;9.892;2022-11-15T10:30:41;10.00;;;3.80;;
20101;SDS011;10210;52.284;9.892;2022-11-15T10:33:35;10.10;;;3.53;;
20101;SDS011;10210;52.284;9.892;2022-11-15T10:39:02;10.87;;;3.97;;
20101;SDS011;10210;52.284;9.892;2022-11-15T10:41:31;9.80;;;3.87;;
20101;SDS011;10210;52.284;9.892;2022-11-15T10:46:42;12.10;;;4.20;;
20101;SDS011;10210;52.284;9.892;2022-11-15T10:49:17;9.27;;;3.53;;
20101;SDS011;10210;52.284;9.892;2022-11-15T10:52:00;10.63;;;4.00;;
20101;SDS011;10210;52.284;9.892;2022-11-15T10:57:07;10.90;;;4.10;;
20101;SDS011;10210;52.284;9.892;2022-11-15T10:59:41;10.67;;;3.77;;
20101;SDS011;10210;52.284;9.892;2022-11-15T11:02:33;10.10;;;3.93;;
20101;SDS011;10210;52.284;9.892;2022-11-15T11:05:25;10.30;;;3.90;;
20101;SDS011;10210;52.284;9.892;2022-11-15T11:08:00;10.20;;;3.97;;
20101;SDS011;10210;52.284;9.892;2022-11-15T11:10:58;10.47;;;3.57;;
20101;SDS011;10210;52.284;9.892;2022-11-15T11:13:43;8.80;;;3.80;;
20101;SDS011;10210;52.284;9.892;2022-11-15T11:32:23;9.67;;;3.63;;
20101;SDS011;10210;52.284;9.892;2022-11-15T11:35:35;9.60;;;3.67;;
20101;SDS011;10210;52.284;9.892;2022-11-15T11:38:15;8.83;;;3.40;;
20101;SDS011;10210;52.284;9.892;2022-11-15T11:46:54;11.43;;;3.73;;
20101;SDS011;10210;52.284;9.892;2022-11-15T11:58:01;9.23;;;3.63;;
20101;SDS011;10210;52.284;9.892;2022-11-15T12:00:28;10.53;;;4.00;;
20101;SDS011;10210;52.284;9.892;2022-11-15T12:03:09;10.37;;;3.77;;
20101;SDS011;10210;52.284;9.892;2022-11-15T12:05:49;9.80;;;3.80;;
20101;SDS011;10210;52.284;9.892;2022-11-15T12:08:30;11.30;;;3.70;;
20101;SDS011;10210;52.284;9.892;2022-11-15T12:11:03;10.30;;;3.40;;
20101;SDS011;10210;52.284;9.892;2022-11-15T12:13:42;8.43;;;3.43;;
20101;SDS011;10210;52.284;9.892;2022-11-15T12:16:17;12.50;;;4.07;;
20101;SDS011;10210;52.284;9.892;2022-11-15T12:18:53;10.23;;;3.70;;
20101;SDS011;10210;52.284;9.892;2022-11-15T12:27:17;10.57;;;4.10;;
20101;SDS011;10210;52.284;9.892;2022-11-15T12:30:15;10.87;;;4.07;;
20101;SDS011;10210;52.284;9.892;2022-11-15T12:32:49;9.00;;;3.53;;
20101;SDS011;10210;52.284;9.892;2022-11-15T12:38:03;11.10;;;3.90;;
20101;SDS011;10210;52.284;9.892;2022-11-15T12:40:35;9.20;;;3.90;;
20101;SDS011;10210;52.284;9.892;2022-11-15T12:45:39;9.70;;;3.43;;
20101;SDS011;10210;52.284;9.892;2022-11-15T12:58:46;11.83;;;3.90;;
20101;SDS011;10210;52.284;9.892;2022-11-15T13:04:13;12.03;;;3.97;;
20101;SDS011;10210;52.284;9.892;2022-11-15T13:06:47;9.30;;;3.70;;
20101;SDS011;10210;52.284;9.892;2022-11-15T13:11:57;9.67;;;3.63;;
20101;SDS011;10210;52.284;9.892;2022-11-15T13:17:30;9.17;;;3.70;;
20101;SDS011;10210;52.284;9.892;2022-11-15T13:22:42;9.63;;;3.20;;
20101;SDS011;10210;52.284;9.892;2022-11-15T13:28:00;11.50;;;3.80;;
20101;SDS011;10210;52.284;9.892;2022-11-15T13:30:50;11.00;;;3.73;;
20101;SDS011;10210;52.284;9.892;2022-11-15T13:33:27;10.60;;;3.80;;
20101;SDS011;10210;52.284;9.892;2022-11-15T13:36:00;11.00;;;3.97;;
20101;SDS011;10210;52.284;9.892;2022-11-15T13:38:33;11.30;;;3.70;;
20101;SDS011;10210;52.284;9.892;2022-11-15T13:41:21;10.57;;;3.63;;
20101;SDS011;10210;52.284;9.892;2022-11-15T13:43:50;10.40;;;3.67;;
20101;SDS011;10210;52.284;9.892;2022-11-15T13:46:26;10.00;;;3.30;;
20101;SDS011;10210;52.284;9.892;2022-11-15T13:56:45;10.67;;;3.70;;
20101;SDS011;10210;52.284;9.892;2022-11-15T13:59:24;8.13;;;3.37;;
20101;SDS011;10210;52.284;9.892;2022-11-15T14:02:02;11.20;;;3.70;;
20101;SDS011;10210;52.284;9.892;2022-11-15T14:04:46;8.57;;;3.17;;
20101;SDS011;10210;52.284;9.892;2022-11-15T14:07:16;11.20;;;3.53;;
20101;SDS011;10210;52.284;9.892;2022-11-15T14:09:45;7.97;;;3.30;;
20101;SDS011;10210;52.284;9.892;2022-11-15T14:12:34;8.87;;;3.53;;
20101;SDS011;10210;52.284;9.892;2022-11-15T14:15:02;8.47;;;3.00;;
20101;SDS011;10210;52.284;9.892;2022-11-15T14:18:04;10.37;;;3.90;;
20101;SDS011;10210;52.284;9.892;2022-11-15T14:20:32;9.70;;;3.43;;
20101;SDS011;10210;52.284;9.892;2022-11-15T14:23:02;9.53;;;3.50;;
20101;SDS011;10210;52.284;9.892;2022-11-15T14:25:52;10.13;;;3.57;;
20101;SDS011;10210;52.284;9.892;2022-11-15T14:30:50;8.73;;;3.13;;
20101;SDS011;10210;52.284;9.892;2022-11-15T14:33:20;9.17;;;3.10;;
20101;SDS011;10210;52.284;9.892;2022-11-15T14:35:54;7.90;;;3.13;;
20101;SDS011;10210;52.284;9.892;2022-11-15T14:38:22;9.73;;;3.50;;
20101;SDS011;10210;52.284;9.892;2022-11-15T14:40:52;8.90;;;3.40;;
20101;SDS011;10210;52.284;9.892;2022-11-15T14:43:19;7.87;;;3.00;;
20101;SDS011;10210;52.284;9.892;2022-11-15T14:45:47;9.17;;;2.97;;
20101;SDS011;10210;52.284;9.892;2022-11-15T14:48:13;8.80;;;3.20;;
20101;SDS011;10210;52.284;9.892;2022-11-15T14:50:39;9.37;;;3.17;;
20101;SDS011;10210;52.284;9.892;2022-11-15T14:53:05;8.33;;;3.10;;
20101;SDS011;10210;52.284;9.892;2022-11-15T14:55:32;10.70;;;3.53;;
20101;SDS011;10210;52.284;9.892;2022-11-15T14:58:01;11.40;;;3.40;;
20101;SDS011;10210;52.284;9.892;2022-11-15T15:00:29;11.40;;;3.30;;
20101;SDS011;10210;52.284;9.892;2022-11-15T15:02:57;10.13;;;3.57;;
20101;SDS011;10210;52.284;9.892;2022-11-15T15:05:24;9.87;;;3.20;;
20101;SDS011;10210;52.284;9.892;2022-11-15T15:07:59;11.17;;;3.53;;
20101;SDS011;10210;52.284;9.892;2022-11-15T15:10:25;9.90;;;3.80;;
20101;SDS011;10210;52.284;9.892;2022-11-15T15:12:57;10.87;;;3.73;;
20101;SDS011;10210;52.284;9.892;2022-11-15T15:15:26;9.10;;;3.53;;
20101;SDS011;10210;52.284;9.892;2022-11-15T15:17:59;9.83;;;4.10;;
20101;SDS011;10210;52.284;9.892;2022-11-15T15:20:26;9.73;;;3.50;;
20101;SDS011;10210;52.284;9.892;2022-11-15T15:22:52;11.83;;;4.30;;
20101;SDS011;10210;52.284;9.892;2022-11-15T15:25:20;10.20;;;3.80;;
20101;SDS011;10210;52.284;9.892;2022-11-15T15:27:49;11.43;;;3.97;;
20101;SDS011;10210;52.284;9.892;2022-11-15T15:30:14;9.87;;;3.73;;
20101;SDS011;10210;52.284;9.892;2022-11-15T15:32:41;8.37;;;3.40;;
20101;SDS011;10210;52.284;9.892;2022-11-15T15:35:07;11.13;;;3.80;;
20101;SDS011;10210;52.284;9.892;2022-11-15T15:37:37;11.40;;;3.33;;
20101;SDS011;10210;52.284;9.892;2022-11-15T15:40:03;9.20;;;3.50;;
20101;SDS011;10210;52.284;9.892;2022-11-15T15:42:38;9.53;;;3.73;;
20101;SDS011;10210;52.284;9.892;2022-11-15T15:45:04;9.93;;;3.60;;
20101;SDS011;10210;52.284;9.892;2022-11-15T15:47:30;11.83;;;3.97;;
20101;SDS011;10210;52.284;9.892;2022-11-15T15:49:56;14.40;;;4.50;;
20101;SDS011;10210;52.284;9.892;2022-11-15T15:52:21;12.37;;;5.30;;
20101;SDS011;10210;52.284;9.892;2022-11-15T15:54:47;14.67;;;5.93;;
20101;SDS011;10210;52.284;9.892;2022-11-15T15:57:13;15.03;;;6.83;;
20101;SDS011;10210;52.284;9.892;2022-11-15T15:59:39;14.80;;;6.23;;
20101;SDS011;10210;52.284;9.892;2022-11-15T16:02:05;17.57;;;6.33;;
20101;SDS011;10210;52.284;9.892;2022-11-15T16:04:33;14.17;;;6.00;;
20101;SDS011;10210;52.284;9.892;2022-11-15T16:06:59;16.20;;;7.40;;
20101;SDS011;10210;52.284;9.892;2022-11-15T16:09:26;14.03;;;6.60;;
20101;SDS011;10210;52.284;9.892;2022-11-15T16:12:11;14.47;;;6.47;;
20101;SDS011;10210;52.284;9.892;2022-11-15T16:14:36;16.40;;;6.90;;
20101;SDS011;10210;52.284;9.892;2022-11-15T16:17:02;15.73;;;7.00;;
20101;SDS011;10210;52.284;9.892;2022-11-15T16:19:29;14.43;;;6.30;;
20101;SDS011;10210;52.284;9.892;2022-11-15T16:21:55;15.13;;;6.30;;
20101;SDS011;10210;52.284;9.892;2022-11-15T16:24:20;14.13;;;5.83;;
20101;SDS011;10210;52.284;9.892;2022-11-15T16:26:47;17.97;;;6.70;;
20101;SDS011;10210;52.284;9.892;2022-11-15T16:29:15;15.93;;;6.90;;
20101;SDS011;10210;52.284;9.892;2022-11-15T16:31:41;16.30;;;6.67;;
20101;SDS011;10210;52.284;9.892;2022-11-15T16:34:06;16.13;;;6.83;;
20101;SDS011;10210;52.284;9.892;2022-11-15T16:36:33;16.93;;;7.23;;
20101;SDS011;10210;52.284;9.892;2022-11-15T16:39:00;15.23;;;6.93;;
20101;SDS011;10210;52.284;9.892;2022-11-15T16:41:30;15.63;;;7.30;;
20101;SDS011;10210;52.284;9.892;2022-11-15T16:43:56;15.63;;;7.20;;
20101;SDS011;10210;52.284;9.892;2022-11-15T16:46:25;18.13;;;8.20;;
20101;SDS011;10210;52.284;9.892;2022-11-15T16:48:53;16.77;;;7.20;;
20101;SDS011;10210;52.284;9.892;2022-11-15T16:51:19;17.17;;;7.43;;
20101;SDS011;10210;52.284;9.892;2022-11-15T16:53:47;17.80;;;7.67;;
20101;SDS011;10210;52.284;9.892;2022-11-15T16:58:55;16.77;;;7.27;;
20101;SDS011;10210;52.284;9.892;2022-11-15T17:01:23;15.93;;;7.67;;
20101;SDS011;10210;52.284;9.892;2022-11-15T17:03:52;20.37;;;7.47;;
20101;SDS011;10210;52.284;9.892;2022-11-15T17:06:19;18.70;;;7.27;;
20101;SDS011;10210;52.284;9.892;2022-11-15T17:08:46;17.30;;;7.53;;
20101;SDS011;10210;52.284;9.892;2022-11-15T17:11:16;18.00;;;7.47;;
20101;SDS011;10210;52.284;9.892;2022-11-15T17:13:45;16.40;;;7.23;;